sensor_id;sensor_type;location;lat;lon;timestamp;P1;durP1;ratioP1;P2;durP2;ratioP2
16015;SDS011;8112;53.592;10.184;2022-10-16T00:00:11;7.00;;;5.10;;
16015;SDS011;8112;53.592;10.184;2022-10-16T00:05:13;5.43;;;4.60;;
16015;SDS011;8112;53.592;10.184;2022-10-16T00:10:16;7.80;;;4.87;;
16015;SDS011;8112;53.592;10.184;2022-10-16T00:15:18;6.37;;;4.73;;
16015;SDS011;8112;53.592;10.184;2022-10-16T00:20:19;6.03;;;4.80;;
16015;SDS011;8112;53.592;10.184;2022-10-16T00:25:22;6.50;;;5.47;;
16015;SDS011;8112;53.592;10.184;2022-10-16T00:30:24;7.50;;;6.40;;
16015;SDS011;8112;53.592;10.184;2022-10-16T00:35:27;5.17;;;4.37;;
16015;SDS011;8112;53.592;10.184;2022-10-16T00:40:30;5.90;;;5.30;;
16015;SDS011;8112;53.592;10.184;2022-10-16T00:45:32;5.83;;;4.83;;
16015;SDS011;8112;53.592;10.184;2022-10-16T00:50:33;7.03;;;5.43;;
16015;SDS011;8112;53.592;10.184;2022-10-16T00:55:37;6.07;;;5.47;;
16015;SDS011;8112;53.592;10.184;2022-10-16T01:00:38;6.23;;;4.70;;
16015;SDS011;8112;53.592;10.184;2022-10-16T01:05:42;6.63;;;5.20;;
16015;SDS011;8112;53.592;10.184;2022-10-16T01:10:52;6.53;;;5.13;;
16015;SDS011;8112;53.592;10.184;2022-10-16T01:15:59;5.93;;;5.20;;
16015;SDS011;8112;53.592;10.184;2022-10-16T01:21:08;6.57;;;5.17;;
16015;SDS011;8112;53.592;10.184;2022-10-16T01:26:19;7.70;;;5.33;;
16015;SDS011;8112;53.592;10.184;2022-10-16T01:31:33;6.47;;;5.50;;
16015;SDS011;8112;53.592;10.184;2022-10-16T01:36:39;7.03;;;4.63;;
16015;SDS011;8112;53.592;10.184;2022-10-16T01:41:44;5.33;;;4.40;;
16015;SDS011;8112;53.592;10.184;2022-10-16T01:46:50;4.90;;;4.27;;
16015;SDS011;8112;53.592;10.184;2022-10-16T01:51:55;5.20;;;3.60;;
16015;SDS011;8112;53.592;10.184;2022-10-16T01:57:00;3.73;;;3.07;;
16015;SDS011;8112;53.592;10.184;2022-10-16T02:02:08;3.83;;;3.37;;
16015;SDS011;8112;53.592;10.184;2022-10-16T02:07:12;3.93;;;3.30;;
16015;SDS011;8112;53.592;10.184;2022-10-16T02:12:15;4.83;;;3.50;;
16015;SDS011;8112;53.592;10.184;2022-10-16T02:17:24;7.20;;;3.03;;
16015;SDS011;8112;53.592;10.184;2022-10-16T02:22:27;5.67;;;3.13;;
16015;SDS011;8112;53.592;10.184;2022-10-16T02:27:33;5.80;;;3.20;;
16015;SDS011;8112;53.592;10.184;2022-10-16T02:32:41;3.30;;;2.90;;
16015;SDS011;8112;53.592;10.184;2022-10-16T02:37:46;3.00;;;2.60;;
16015;SDS011;8112;53.592;10.184;2022-10-16T02:42:49;3.00;;;2.33;;
16015;SDS011;8112;53.592;10.184;2022-10-16T02:47:56;3.73;;;2.30;;
16015;SDS011;8112;53.592;10.184;2022-10-16T02:52:58;2.60;;;2.40;;
16015;SDS011;8112;53.592;10.184;2022-10-16T02:57:59;3.57;;;2.17;;
16015;SDS011;8112;53.592;10.184;2022-10-16T03:03:02;5.60;;;2.40;;
16015;SDS011;8112;53.592;10.184;2022-10-16T03:08:04;2.53;;;2.20;;
16015;SDS011;8112;53.592;10.184;2022-10-16T03:13:05;3.37;;;2.20;;
16015;SDS011;8112;53.592;10.184;2022-10-16T03:18:08;2.57;;;2.13;;
16015;SDS011;8112;53.592;10.184;2022-10-16T03:23:10;2.77;;;1.87;;
16015;SDS011;8112;53.592;10.184;2022-10-16T03:28:12;2.60;;;1.93;;
16015;SDS011;8112;53.592;10.184;2022-10-16T03:33:15;2.00;;;1.83;;
16015;SDS011;8112;53.592;10.184;2022-10-16T03:38:17;2.27;;;1.80;;
16015;SDS011;8112;53.592;10.184;2022-10-16T03:43:18;3.43;;;1.80;;
16015;SDS011;8112;53.592;10.184;2022-10-16T03:48:21;3.20;;;2.00;;
16015;SDS011;8112;53.592;10.184;2022-10-16T03:53:23;6.57;;;2.00;;
16015;SDS011;8112;53.592;10.184;2022-10-16T03:58:25;2.23;;;1.80;;
16015;SDS011;8112;53.592;10.184;2022-10-16T04:03:28;2.77;;;1.70;;
16015;SDS011;8112;53.592;10.184;2022-10-16T04:08:29;1.80;;;1.47;;
16015;SDS011;8112;53.592;10.184;2022-10-16T04:13:34;2.10;;;1.53;;
16015;SDS011;8112;53.592;10.184;2022-10-16T04:18:37;3.77;;;1.80;;
16015;SDS011;8112;53.592;10.184;2022-10-16T04:23:39;2.73;;;2.20;;
16015;SDS011;8112;53.592;10.184;2022-10-16T04:28:41;3.07;;;1.70;;
16015;SDS011;8112;53.592;10.184;2022-10-16T04:33:43;2.07;;;1.40;;
16015;SDS011;8112;53.592;10.184;2022-10-16T04:38:45;2.17;;;1.57;;
16015;SDS011;8112;53.592;10.184;2022-10-16T04:43:47;3.53;;;1.90;;
16015;SDS011;8112;53.592;10.184;2022-10-16T04:48:50;2.10;;;1.50;;
16015;SDS011;8112;53.592;10.184;2022-10-16T04:53:51;3.77;;;1.97;;
16015;SDS011;8112;53.592;10.184;2022-10-16T04:58:53;2.53;;;1.70;;
16015;SDS011;8112;53.592;10.184;2022-10-16T05:03:56;2.93;;;1.70;;
16015;SDS011;8112;53.592;10.184;2022-10-16T05:08:58;4.93;;;2.00;;
16015;SDS011;8112;53.592;10.184;2022-10-16T05:13:59;3.77;;;2.00;;
16015;SDS011;8112;53.592;10.184;2022-10-16T05:19:03;2.47;;;2.00;;
16015;SDS011;8112;53.592;10.184;2022-10-16T05:24:04;4.83;;;2.73;;
16015;SDS011;8112;53.592;10.184;2022-10-16T05:29:06;3.17;;;2.00;;
16015;SDS011;8112;53.592;10.184;2022-10-16T05:34:09;2.63;;;1.83;;
16015;SDS011;8112;53.592;10.184;2022-10-16T05:39:10;7.10;;;1.70;;
16015;SDS011;8112;53.592;10.184;2022-10-16T05:44:12;3.10;;;2.00;;
16015;SDS011;8112;53.592;10.184;2022-10-16T05:49:15;4.90;;;2.10;;
16015;SDS011;8112;53.592;10.184;2022-10-16T05:54:17;4.60;;;2.27;;
16015;SDS011;8112;53.592;10.184;2022-10-16T05:59:18;3.20;;;2.10;;
16015;SDS011;8112;53.592;10.184;2022-10-16T06:04:21;2.00;;;1.90;;
16015;SDS011;8112;53.592;10.184;2022-10-16T06:09:23;1.90;;;1.70;;
16015;SDS011;8112;53.592;10.184;2022-10-16T06:14:24;4.93;;;2.10;;
16015;SDS011;8112;53.592;10.184;2022-10-16T06:19:27;6.20;;;2.50;;
16015;SDS011;8112;53.592;10.184;2022-10-16T06:24:29;2.60;;;1.90;;
16015;SDS011;8112;53.592;10.184;2022-10-16T06:29:31;3.43;;;2.37;;
16015;SDS011;8112;53.592;10.184;2022-10-16T06:34:36;4.20;;;1.97;;
16015;SDS011;8112;53.592;10.184;2022-10-16T06:39:40;3.50;;;2.00;;
16015;SDS011;8112;53.592;10.184;2022-10-16T06:44:41;6.13;;;2.20;;
16015;SDS011;8112;53.592;10.184;2022-10-16T06:49:44;3.80;;;2.20;;
16015;SDS011;8112;53.592;10.184;2022-10-16T06:54:49;4.33;;;2.90;;
16015;SDS011;8112;53.592;10.184;2022-10-16T06:59:51;2.33;;;1.70;;
16015;SDS011;8112;53.592;10.184;2022-10-16T07:04:54;3.30;;;2.30;;
16015;SDS011;8112;53.592;10.184;2022-10-16T07:09:56;3.73;;;3.17;;
16015;SDS011;8112;53.592;10.184;2022-10-16T07:14:58;2.57;;;2.27;;
16015;SDS011;8112;53.592;10.184;2022-10-16T07:20:01;3.07;;;2.00;;
16015;SDS011;8112;53.592;10.184;2022-10-16T07:25:03;4.77;;;2.00;;
16015;SDS011;8112;53.592;10.184;2022-10-16T07:30:06;2.37;;;2.03;;
16015;SDS011;8112;53.592;10.184;2022-10-16T07:35:09;4.33;;;2.40;;
16015;SDS011;8112;53.592;10.184;2022-10-16T07:40:11;4.47;;;2.50;;
16015;SDS011;8112;53.592;10.184;2022-10-16T07:45:13;2.50;;;2.20;;
16015;SDS011;8112;53.592;10.184;2022-10-16T07:50:15;3.53;;;2.47;;
16015;SDS011;8112;53.592;10.184;2022-10-16T07:55:17;5.53;;;2.40;;
16015;SDS011;8112;53.592;10.184;2022-10-16T08:00:19;3.13;;;2.37;;
16015;SDS011;8112;53.592;10.184;2022-10-16T08:05:22;4.83;;;2.97;;
16015;SDS011;8112;53.592;10.184;2022-10-16T08:10:24;3.93;;;2.70;;
16015;SDS011;8112;53.592;10.184;2022-10-16T08:15:27;6.27;;;2.87;;
16015;SDS011;8112;53.592;10.184;2022-10-16T08:20:31;3.40;;;2.60;;
16015;SDS011;8112;53.592;10.184;2022-10-16T08:25:34;2.83;;;2.17;;
16015;SDS011;8112;53.592;10.184;2022-10-16T08:30:36;3.30;;;2.10;;
16015;SDS011;8112;53.592;10.184;2022-10-16T08:35:39;3.43;;;2.37;;
16015;SDS011;8112;53.592;10.184;2022-10-16T08:40:41;6.00;;;2.57;;
16015;SDS011;8112;53.592;10.184;2022-10-16T08:45:46;3.13;;;2.23;;
16015;SDS011;8112;53.592;10.184;2022-10-16T08:51:01;2.17;;;1.73;;
16015;SDS011;8112;53.592;10.184;2022-10-16T08:56:04;3.97;;;1.87;;
16015;SDS011;8112;53.592;10.184;2022-10-16T09:01:10;2.07;;;1.83;;
16015;SDS011;8112;53.592;10.184;2022-10-16T09:06:27;4.93;;;2.50;;
16015;SDS011;8112;53.592;10.184;2022-10-16T09:11:38;4.93;;;1.97;;
16015;SDS011;8112;53.592;10.184;2022-10-16T09:16:48;3.43;;;2.00;;
16015;SDS011;8112;53.592;10.184;2022-10-16T09:21:59;2.60;;;1.50;;
16015;SDS011;8112;53.592;10.184;2022-10-16T09:27:03;2.80;;;1.50;;
16015;SDS011;8112;53.592;10.184;2022-10-16T09:32:08;2.93;;;1.70;;
16015;SDS011;8112;53.592;10.184;2022-10-16T09:37:14;2.90;;;1.07;;
16015;SDS011;8112;53.592;10.184;2022-10-16T09:42:20;1.50;;;1.40;;
16015;SDS011;8112;53.592;10.184;2022-10-16T09:47:25;1.83;;;1.30;;
16015;SDS011;8112;53.592;10.184;2022-10-16T09:52:30;1.67;;;1.37;;
16015;SDS011;8112;53.592;10.184;2022-10-16T09:57:33;1.53;;;1.13;;
16015;SDS011;8112;53.592;10.184;2022-10-16T10:02:35;3.03;;;1.33;;
16015;SDS011;8112;53.592;10.184;2022-10-16T10:07:42;2.47;;;1.10;;
16015;SDS011;8112;53.592;10.184;2022-10-16T10:12:46;2.73;;;0.90;;
16015;SDS011;8112;53.592;10.184;2022-10-16T10:17:48;5.73;;;1.73;;
16015;SDS011;8112;53.592;10.184;2022-10-16T10:22:53;3.53;;;1.13;;
16015;SDS011;8112;53.592;10.184;2022-10-16T10:33:34;3.43;;;1.13;;
16015;SDS011;8112;53.592;10.184;2022-10-16T10:38:47;3.17;;;1.20;;
16015;SDS011;8112;53.592;10.184;2022-10-16T10:43:54;3.23;;;1.23;;
16015;SDS011;8112;53.592;10.184;2022-10-16T10:49:16;1.73;;;0.90;;
16015;SDS011;8112;53.592;10.184;2022-10-16T10:54:31;2.00;;;1.07;;
16015;SDS011;8112;53.592;10.184;2022-10-16T11:10:34;2.27;;;0.93;;
16015;SDS011;8112;53.592;10.184;2022-10-16T11:15:43;1.87;;;0.70;;
16015;SDS011;8112;53.592;10.184;2022-10-16T11:20:49;2.80;;;0.80;;
16015;SDS011;8112;53.592;10.184;2022-10-16T11:25:56;2.28;;;0.70;;
16015;SDS011;8112;53.592;10.184;2022-10-16T11:31:03;2.30;;;0.63;;
16015;SDS011;8112;53.592;10.184;2022-10-16T11:36:12;2.73;;;0.83;;
16015;SDS011;8112;53.592;10.184;2022-10-16T11:41:20;2.40;;;0.60;;
16015;SDS011;8112;53.592;10.184;2022-10-16T11:46:27;2.40;;;0.60;;
16015;SDS011;8112;53.592;10.184;2022-10-16T11:51:33;3.87;;;1.00;;
16015;SDS011;8112;53.592;10.184;2022-10-16T11:56:41;2.13;;;0.50;;
16015;SDS011;8112;53.592;10.184;2022-10-16T12:01:46;3.07;;;0.90;;
16015;SDS011;8112;53.592;10.184;2022-10-16T12:06:55;3.97;;;0.80;;
16015;SDS011;8112;53.592;10.184;2022-10-16T12:12:02;1.80;;;0.80;;
16015;SDS011;8112;53.592;10.184;2022-10-16T12:17:04;2.43;;;1.00;;
16015;SDS011;8112;53.592;10.184;2022-10-16T12:22:25;3.53;;;0.97;;
16015;SDS011;8112;53.592;10.184;2022-10-16T12:27:31;3.60;;;0.80;;
16015;SDS011;8112;53.592;10.184;2022-10-16T12:32:34;6.40;;;0.93;;
16015;SDS011;8112;53.592;10.184;2022-10-16T12:37:39;3.77;;;1.23;;
16015;SDS011;8112;53.592;10.184;2022-10-16T12:42:42;2.90;;;0.87;;
16015;SDS011;8112;53.592;10.184;2022-10-16T12:47:47;2.00;;;0.73;;
16015;SDS011;8112;53.592;10.184;2022-10-16T12:52:51;5.67;;;0.80;;
16015;SDS011;8112;53.592;10.184;2022-10-16T12:57:59;3.23;;;1.20;;
16015;SDS011;8112;53.592;10.184;2022-10-16T13:03:21;3.63;;;0.80;;
16015;SDS011;8112;53.592;10.184;2022-10-16T13:08:43;4.47;;;1.30;;
16015;SDS011;8112;53.592;10.184;2022-10-16T13:14:09;4.43;;;0.97;;
16015;SDS011;8112;53.592;10.184;2022-10-16T13:19:28;3.17;;;0.97;;
16015;SDS011;8112;53.592;10.184;2022-10-16T13:24:42;3.80;;;1.10;;
16015;SDS011;8112;53.592;10.184;2022-10-16T13:29:54;3.70;;;1.17;;
16015;SDS011;8112;53.592;10.184;2022-10-16T13:35:02;4.33;;;1.37;;
16015;SDS011;8112;53.592;10.184;2022-10-16T13:40:09;3.37;;;1.03;;
16015;SDS011;8112;53.592;10.184;2022-10-16T13:45:21;4.23;;;1.40;;
16015;SDS011;8112;53.592;10.184;2022-10-16T13:50:25;4.97;;;1.27;;
16015;SDS011;8112;53.592;10.184;2022-10-16T13:55:26;2.90;;;0.80;;
16015;SDS011;8112;53.592;10.184;2022-10-16T14:00:29;2.13;;;0.83;;
16015;SDS011;8112;53.592;10.184;2022-10-16T14:05:32;1.40;;;0.90;;
16015;SDS011;8112;53.592;10.184;2022-10-16T14:10:34;2.07;;;0.80;;
16015;SDS011;8112;53.592;10.184;2022-10-16T14:15:37;3.37;;;0.60;;
16015;SDS011;8112;53.592;10.184;2022-10-16T14:20:38;2.53;;;0.93;;
16015;SDS011;8112;53.592;10.184;2022-10-16T14:25:42;3.97;;;1.13;;
16015;SDS011;8112;53.592;10.184;2022-10-16T14:30:52;1.93;;;0.80;;
16015;SDS011;8112;53.592;10.184;2022-10-16T14:35:59;2.33;;;1.03;;
16015;SDS011;8112;53.592;10.184;2022-10-16T14:41:06;2.60;;;0.90;;
16015;SDS011;8112;53.592;10.184;2022-10-16T14:46:11;2.87;;;1.03;;
16015;SDS011;8112;53.592;10.184;2022-10-16T14:51:14;2.80;;;1.00;;
16015;SDS011;8112;53.592;10.184;2022-10-16T14:56:17;3.40;;;1.17;;
16015;SDS011;8112;53.592;10.184;2022-10-16T15:01:23;3.80;;;1.17;;
16015;SDS011;8112;53.592;10.184;2022-10-16T15:06:25;4.83;;;1.30;;
16015;SDS011;8112;53.592;10.184;2022-10-16T15:11:26;4.90;;;1.30;;
16015;SDS011;8112;53.592;10.184;2022-10-16T15:16:29;4.00;;;1.07;;
16015;SDS011;8112;53.592;10.184;2022-10-16T15:21:32;4.50;;;1.47;;
16015;SDS011;8112;53.592;10.184;2022-10-16T15:26:34;3.67;;;0.90;;
16015;SDS011;8112;53.592;10.184;2022-10-16T15:31:37;2.37;;;1.00;;
16015;SDS011;8112;53.592;10.184;2022-10-16T15:36:42;5.17;;;1.37;;
16015;SDS011;8112;53.592;10.184;2022-10-16T15:41:44;4.63;;;1.53;;
16015;SDS011;8112;53.592;10.184;2022-10-16T15:46:51;4.17;;;1.37;;
16015;SDS011;8112;53.592;10.184;2022-10-16T15:51:56;6.80;;;1.60;;
16015;SDS011;8112;53.592;10.184;2022-10-16T15:56:57;2.57;;;1.13;;
16015;SDS011;8112;53.592;10.184;2022-10-16T16:02:00;3.87;;;1.27;;
16015;SDS011;8112;53.592;10.184;2022-10-16T16:07:02;3.33;;;1.30;;
16015;SDS011;8112;53.592;10.184;2022-10-16T16:12:03;4.10;;;1.23;;
16015;SDS011;8112;53.592;10.184;2022-10-16T16:17:06;4.17;;;1.50;;
16015;SDS011;8112;53.592;10.184;2022-10-16T16:22:08;4.13;;;1.60;;
16015;SDS011;8112;53.592;10.184;2022-10-16T16:27:09;2.57;;;1.43;;
16015;SDS011;8112;53.592;10.184;2022-10-16T16:32:14;2.90;;;1.53;;
16015;SDS011;8112;53.592;10.184;2022-10-16T16:37:15;3.97;;;2.00;;
16015;SDS011;8112;53.592;10.184;2022-10-16T16:42:17;4.07;;;1.70;;
16015;SDS011;8112;53.592;10.184;2022-10-16T16:47:20;4.03;;;1.60;;
16015;SDS011;8112;53.592;10.184;2022-10-16T16:52:22;5.23;;;1.63;;
16015;SDS011;8112;53.592;10.184;2022-10-16T16:57:23;5.10;;;2.00;;
16015;SDS011;8112;53.592;10.184;2022-10-16T17:02:26;4.73;;;2.57;;
16015;SDS011;8112;53.592;10.184;2022-10-16T17:07:30;4.00;;;2.20;;
16015;SDS011;8112;53.592;10.184;2022-10-16T17:12:32;3.73;;;2.00;;
16015;SDS011;8112;53.592;10.184;2022-10-16T17:17:35;5.63;;;2.30;;
16015;SDS011;8112;53.592;10.184;2022-10-16T17:22:37;4.13;;;2.03;;
16015;SDS011;8112;53.592;10.184;2022-10-16T17:28:04;3.67;;;2.30;;
16015;SDS011;8112;53.592;10.184;2022-10-16T17:33:09;5.00;;;2.63;;
16015;SDS011;8112;53.592;10.184;2022-10-16T17:38:12;6.77;;;2.83;;
16015;SDS011;8112;53.592;10.184;2022-10-16T17:43:15;5.70;;;2.87;;
16015;SDS011;8112;53.592;10.184;2022-10-16T17:48:18;4.33;;;2.70;;
16015;SDS011;8112;53.592;10.184;2022-10-16T17:53:20;8.10;;;4.03;;
16015;SDS011;8112;53.592;10.184;2022-10-16T17:58:22;6.70;;;4.30;;
16015;SDS011;8112;53.592;10.184;2022-10-16T18:03:25;6.20;;;4.20;;
16015;SDS011;8112;53.592;10.184;2022-10-16T18:08:27;10.67;;;4.10;;
16015;SDS011;8112;53.592;10.184;2022-10-16T18:13:29;5.83;;;3.80;;
16015;SDS011;8112;53.592;10.184;2022-10-16T18:18:32;6.97;;;4.30;;
16015;SDS011;8112;53.592;10.184;2022-10-16T18:23:34;8.37;;;4.50;;
16015;SDS011;8112;53.592;10.184;2022-10-16T18:28:37;10.47;;;5.17;;
16015;SDS011;8112;53.592;10.184;2022-10-16T18:33:40;6.80;;;4.57;;
16015;SDS011;8112;53.592;10.184;2022-10-16T18:38:47;8.67;;;4.37;;
16015;SDS011;8112;53.592;10.184;2022-10-16T18:43:49;5.17;;;3.37;;
16015;SDS011;8112;53.592;10.184;2022-10-16T18:48:54;6.90;;;3.50;;
16015;SDS011;8112;53.592;10.184;2022-10-16T18:53:56;5.60;;;3.00;;
16015;SDS011;8112;53.592;10.184;2022-10-16T18:59:00;6.33;;;4.10;;
16015;SDS011;8112;53.592;10.184;2022-10-16T19:04:06;4.60;;;3.27;;
16015;SDS011;8112;53.592;10.184;2022-10-16T19:09:09;5.27;;;3.17;;
16015;SDS011;8112;53.592;10.184;2022-10-16T19:14:13;4.20;;;3.00;;
16015;SDS011;8112;53.592;10.184;2022-10-16T19:19:17;6.47;;;3.60;;
16015;SDS011;8112;53.592;10.184;2022-10-16T19:24:19;7.07;;;3.40;;
16015;SDS011;8112;53.592;10.184;2022-10-16T19:29:21;3.23;;;2.80;;
16015;SDS011;8112;53.592;10.184;2022-10-16T19:34:24;5.07;;;3.17;;
16015;SDS011;8112;53.592;10.184;2022-10-16T19:39:25;5.60;;;3.80;;
16015;SDS011;8112;53.592;10.184;2022-10-16T19:44:27;6.17;;;3.53;;
16015;SDS011;8112;53.592;10.184;2022-10-16T19:49:30;6.53;;;2.83;;
16015;SDS011;8112;53.592;10.184;2022-10-16T19:54:32;7.30;;;2.73;;
16015;SDS011;8112;53.592;10.184;2022-10-16T19:59:34;6.13;;;4.33;;
16015;SDS011;8112;53.592;10.184;2022-10-16T20:04:37;7.70;;;4.53;;
16015;SDS011;8112;53.592;10.184;2022-10-16T20:09:39;5.77;;;4.07;;
16015;SDS011;8112;53.592;10.184;2022-10-16T20:14:41;4.80;;;3.27;;
16015;SDS011;8112;53.592;10.184;2022-10-16T20:19:43;3.93;;;3.27;;
16015;SDS011;8112;53.592;10.184;2022-10-16T20:24:45;5.20;;;2.70;;
16015;SDS011;8112;53.592;10.184;2022-10-16T20:29:47;3.47;;;2.30;;
16015;SDS011;8112;53.592;10.184;2022-10-16T20:34:50;5.83;;;2.50;;
16015;SDS011;8112;53.592;10.184;2022-10-16T20:39:51;6.47;;;2.67;;
16015;SDS011;8112;53.592;10.184;2022-10-16T20:44:53;4.93;;;2.67;;
16015;SDS011;8112;53.592;10.184;2022-10-16T20:49:56;5.57;;;2.40;;
16015;SDS011;8112;53.592;10.184;2022-10-16T20:54:57;5.70;;;2.57;;
16015;SDS011;8112;53.592;10.184;2022-10-16T20:59:59;5.77;;;2.40;;
16015;SDS011;8112;53.592;10.184;2022-10-16T21:05:02;8.87;;;2.87;;
16015;SDS011;8112;53.592;10.184;2022-10-16T21:10:04;3.70;;;2.40;;
16015;SDS011;8112;53.592;10.184;2022-10-16T21:15:06;4.37;;;2.37;;
16015;SDS011;8112;53.592;10.184;2022-10-16T21:20:10;3.87;;;2.70;;
16015;SDS011;8112;53.592;10.184;2022-10-16T21:25:11;4.10;;;2.90;;
16015;SDS011;8112;53.592;10.184;2022-10-16T21:30:13;5.43;;;3.23;;
16015;SDS011;8112;53.592;10.184;2022-10-16T21:35:16;6.83;;;2.83;;
16015;SDS011;8112;53.592;10.184;2022-10-16T21:40:18;4.67;;;2.80;;
16015;SDS011;8112;53.592;10.184;2022-10-16T21:45:19;4.50;;;2.63;;
16015;SDS011;8112;53.592;10.184;2022-10-16T21:50:22;4.07;;;2.57;;
16015;SDS011;8112;53.592;10.184;2022-10-16T21:55:24;8.80;;;3.33;;
16015;SDS011;8112;53.592;10.184;2022-10-16T22:00:26;4.33;;;2.90;;
16015;SDS011;8112;53.592;10.184;2022-10-16T22:05:28;4.90;;;2.97;;
16015;SDS011;8112;53.592;10.184;2022-10-16T22:10:30;5.57;;;3.83;;
16015;SDS011;8112;53.592;10.184;2022-10-16T22:15:32;3.90;;;2.97;;
16015;SDS011;8112;53.592;10.184;2022-10-16T22:20:35;5.07;;;2.90;;
16015;SDS011;8112;53.592;10.184;2022-10-16T22:25:36;6.17;;;3.53;;
16015;SDS011;8112;53.592;10.184;2022-10-16T22:30:38;7.90;;;3.50;;
16015;SDS011;8112;53.592;10.184;2022-10-16T22:35:42;4.73;;;3.20;;
16015;SDS011;8112;53.592;10.184;2022-10-16T22:40:43;8.10;;;3.00;;
16015;SDS011;8112;53.592;10.184;2022-10-16T22:45:45;6.43;;;2.87;;
16015;SDS011;8112;53.592;10.184;2022-10-16T22:50:48;5.03;;;2.50;;
16015;SDS011;8112;53.592;10.184;2022-10-16T22:55:50;4.67;;;3.10;;
16015;SDS011;8112;53.592;10.184;2022-10-16T23:00:51;4.60;;;2.80;;
16015;SDS011;8112;53.592;10.184;2022-10-16T23:05:55;6.27;;;3.17;;
16015;SDS011;8112;53.592;10.184;2022-10-16T23:10:56;4.40;;;2.23;;
16015;SDS011;8112;53.592;10.184;2022-10-16T23:16:01;8.17;;;2.60;;
16015;SDS011;8112;53.592;10.184;2022-10-16T23:21:06;5.00;;;2.90;;
16015;SDS011;8112;53.592;10.184;2022-10-16T23:26:08;3.63;;;2.23;;
16015;SDS011;8112;53.592;10.184;2022-10-16T23:31:11;4.37;;;2.43;;
16015;SDS011;8112;53.592;10.184;2022-10-16T23:36:16;4.40;;;2.53;;
16015;SDS011;8112;53.592;10.184;2022-10-16T23:41:18;6.97;;;2.67;;
16015;SDS011;8112;53.592;10.184;2022-10-16T23:46:21;5.00;;;2.37;;
16015;SDS011;8112;53.592;10.184;2022-10-16T23:51:24;6.03;;;2.53;;
16015;SDS011;8112;53.592;10.184;2022-10-16T23:56:25;3.27;;;2.47;;
